Time;durP1;ratioP1;P1;durP2;ratioP2;P2;SDS_P1;SDS_P2;PMS_P1;PMS_P2;Temp;Humidity;BMP_temperature;BMP_pressure;BME280_temperature;BME280_humidity;BME280_pressure;Samples;Min_cycle;Max_cycle;Signal;HPM_P1;HPM_P2
2022/08/15 00:00:08;;;;;;;6.80;2.97;;;;;;;24.92;46.45;98453.31;344976;28;994;-77
2022/08/15 00:00:40;;;;;;;5.18;3.17;;;;;;;24.92;46.34;98453.31;344015;28;1377;-77
2022/08/15 00:00:56;;;;;;;4.45;2.90;;;;;;;24.89;46.22;98455.47;345056;28;1125;-78
2022/08/15 00:01:12;;;;;;;4.65;2.78;;;;;;;24.98;45.97;98454.47;344982;28;1989;-77
2022/08/15 00:01:30;;;;;;;5.57;3.05;;;;;;;24.99;45.81;98458.81;344938;28;1059;-77
2022/08/15 00:01:50;;;;;;;6.43;3.10;;;;;;;25.02;45.81;98461.09;344785;28;2038;-77
2022/08/15 00:02:04;;;;;;;7.57;3.17;;;;;;;24.95;46.21;98465.47;343449;28;1469;-77
2022/08/15 00:02:40;;;;;;;3.70;3.15;;;;;;;25.07;45.70;98460.56;342099;28;1295;-77
2022/08/15 00:03:02;;;;;;;5.80;3.00;;;;;;;25.11;45.40;98453.91;342796;28;1358;-77
2022/08/15 00:03:27;;;;;;;5.50;2.95;;;;;;;25.07;45.43;98453.44;343415;28;1742;-78
2022/08/15 00:04:00;;;;;;;4.40;2.90;;;;;;;25.09;45.43;98451.44;342788;28;1746;-77
2022/08/15 00:04:16;;;;;;;6.35;3.20;;;;;;;25.08;45.43;98454.28;343683;28;1067;-78
2022/08/15 00:04:45;;;;;;;8.65;3.53;;;;;;;25.06;45.41;98462.41;342580;28;1063;-77
2022/08/15 00:05:01;;;;;;;9.32;3.50;;;;;;;25.04;45.59;98464.41;341320;28;1433;-78
2022/08/15 00:05:22;;;;;;;10.35;2.90;;;;;;;25.03;45.59;98468.09;343028;28;1043;-78
2022/08/15 00:05:34;;;;;;;5.70;2.78;;;;;;;25.07;45.49;98461.44;342582;28;1661;-77
2022/08/15 00:05:49;;;;;;;4.20;3.00;;;;;;;25.05;45.52;98455.47;341267;28;1836;-78
2022/08/15 00:06:07;;;;;;;5.03;3.10;;;;;;;25.08;45.75;98452.44;341704;28;1960;-77
2022/08/15 00:06:41;;;;;;;8.90;3.00;;;;;;;24.99;45.63;98450.81;343840;28;1372;-77
2022/08/15 00:06:53;;;;;;;6.72;3.22;;;;;;;25.08;45.37;98449.78;343802;28;1642;-78
2022/08/15 00:07:08;;;;;;;6.07;3.42;;;;;;;25.05;45.27;98455.47;344000;28;1518;-77
2022/08/15 00:07:28;;;;;;;6.97;2.95;;;;;;;25.11;45.41;98459.22;343980;28;1007;-77
2022/08/15 00:07:59;;;;;;;3.97;2.80;;;;;;;24.98;45.55;98459.78;344920;28;1284;-78
2022/08/15 00:08:11;;;;;;;4.07;2.85;;;;;;;24.98;45.64;98458.97;344857;28;1035;-78
2022/08/15 00:08:51;;;;;;;5.40;3.30;;;;;;;24.98;45.49;98454.47;344062;28;1625;-77
2022/08/15 00:09:22;;;;;;;6.88;3.15;;;;;;;24.91;45.55;98464.13;344005;28;1019;-78
2022/08/15 00:09:34;;;;;;;7.90;3.17;;;;;;;24.94;45.46;98461.13;343841;28;1093;-77
2022/08/15 00:10:08;;;;;;;3.60;2.97;;;;;;;25.00;45.58;98457.78;343687;28;1591;-78
2022/08/15 00:10:44;;;;;;;4.40;3.00;;;;;;;24.98;45.39;98459.78;343616;28;1678;-77
2022/08/15 00:11:20;;;;;;;6.18;2.97;;;;;;;25.02;45.32;98466.41;343280;28;1043;-78
2022/08/15 00:11:40;;;;;;;6.50;2.90;;;;;;;25.02;45.65;98455.78;343675;28;2461;-77
2022/08/15 00:11:56;;;;;;;5.95;2.95;;;;;;;25.04;45.95;98459.09;344387;28;1103;-78
2022/08/15 00:12:09;;;;;;;6.43;3.00;;;;;;;25.00;45.82;98460.44;344955;28;1157;-77
2022/08/15 00:12:40;;;;;;;5.43;2.90;;;;;;;24.95;46.15;98460.16;342193;28;1504;-78
2022/08/15 00:12:53;;;;;;;5.05;2.85;;;;;;;24.85;45.96;98459.47;340865;28;1206;-77
2022/08/15 00:13:17;;;;;;;5.22;2.92;;;;;;;24.95;45.74;98453.97;340967;29;1144;-78
2022/08/15 00:13:30;;;;;;;6.43;3.10;;;;;;;24.89;45.98;98460.81;341505;28;1076;-77
2022/08/15 00:13:58;;;;;;;6.25;2.97;;;;;;;24.95;45.54;98454.81;343572;28;1035;-77
2022/08/15 00:14:23;;;;;;;4.88;3.13;;;;;;;25.01;45.76;98455.94;343665;28;1057;-77
2022/08/15 00:14:42;;;;;;;5.72;3.00;;;;;;;25.02;45.58;98454.97;343466;28;1372;-77
2022/08/15 00:14:55;;;;;;;5.78;2.92;;;;;;;25.01;45.51;98453.28;345411;28;1240;-77
2022/08/15 00:15:14;;;;;;;4.38;2.80;;;;;;;24.99;45.45;98461.47;343742;28;1136;-77
2022/08/15 00:15:26;;;;;;;3.80;2.83;;;;;;;24.96;45.70;98455.66;343336;28;1171;-77
2022/08/15 00:15:47;;;;;;;5.97;2.90;;;;;;;24.87;45.91;98460.13;342228;28;1023;-77
2022/08/15 00:15:59;;;;;;;7.03;2.92;;;;;;;24.96;45.77;98460.97;341967;28;1584;-77
2022/08/15 00:16:16;;;;;;;6.53;3.05;;;;;;;24.85;46.05;98465.66;340898;29;1213;-77
2022/08/15 00:16:36;;;;;;;7.43;3.00;;;;;;;24.90;45.90;98465.13;341225;28;1082;-77
2022/08/15 00:16:49;;;;;;;7.18;3.10;;;;;;;24.95;45.69;98460.16;340868;28;1911;-77
2022/08/15 00:17:09;;;;;;;6.63;3.20;;;;;;;24.95;45.63;98460.16;341578;28;1345;-77
2022/08/15 00:17:23;;;;;;;7.00;3.30;;;;;;;24.97;45.56;98468.78;342526;28;1192;-77
2022/08/15 00:17:55;;;;;;;5.10;3.03;;;;;;;25.05;45.45;98463.44;344237;28;1592;-77
2022/08/15 00:18:07;;;;;;;5.25;3.10;;;;;;;24.97;45.61;98460.81;341777;28;1459;-77
2022/08/15 00:18:24;;;;;;;5.13;3.15;;;;;;;24.99;45.54;98469.44;342205;28;1211;-77
2022/08/15 00:18:37;;;;;;;5.00;3.00;;;;;;;24.95;45.31;98460.16;342122;28;1089;-77
2022/08/15 00:18:50;;;;;;;5.28;3.03;;;;;;;25.02;45.42;98458.44;341741;28;1769;-77
2022/08/15 00:19:15;;;;;;;4.82;3.08;;;;;;;25.08;45.44;98455.09;341912;28;1521;-77
2022/08/15 00:19:30;;;;;;;7.00;3.10;;;;;;;25.08;44.94;98468.38;341016;29;1084;-78
2022/08/15 00:19:47;;;;;;;6.88;3.25;;;;;;;25.03;45.40;98461.94;342222;28;1313;-77
2022/08/15 00:19:59;;;;;;;6.88;3.30;;;;;;;24.97;45.49;98459.94;342906;28;1476;-77
2022/08/15 00:20:12;;;;;;;7.22;3.28;;;;;;;25.00;45.50;98462.28;344374;28;1019;-78
2022/08/15 00:20:43;;;;;;;7.32;3.30;;;;;;;25.04;45.82;98467.06;345057;28;1391;-77
2022/08/15 00:21:03;;;;;;;5.60;3.10;;;;;;;25.10;45.40;98466.38;344766;28;1101;-78
2022/08/15 00:21:21;;;;;;;5.22;3.00;;;;;;;25.10;45.54;98457.59;344611;28;1164;-77
2022/08/15 00:21:43;;;;;;;5.63;2.80;;;;;;;25.08;45.49;98471.03;343723;28;1083;-77
2022/08/15 00:22:02;;;;;;;5.28;3.00;;;;;;;25.12;45.38;98468.88;344099;28;2016;-78
2022/08/15 00:22:17;;;;;;;8.20;3.27;;;;;;;25.12;45.58;98471.53;343839;28;1039;-78
2022/08/15 00:22:30;;;;;;;8.73;3.15;;;;;;;25.16;45.26;98464.06;343600;28;1595;-77
2022/08/15 00:22:48;;;;;;;6.05;3.05;;;;;;;25.19;45.02;98469.00;344004;28;1087;-77
2022/08/15 00:23:04;;;;;;;4.47;2.88;;;;;;;25.22;44.99;98466.06;344461;28;1231;-78
2022/08/15 00:23:18;;;;;;;3.78;2.90;;;;;;;25.23;44.90;98467.69;343493;28;1060;-78
2022/08/15 00:23:39;;;;;;;6.80;3.17;;;;;;;25.22;45.17;98468.72;343542;28;1625;-77
2022/08/15 00:23:51;;;;;;;8.02;3.10;;;;;;;25.24;44.99;98475.50;345319;28;873;-78
2022/08/15 00:24:04;;;;;;;7.07;3.20;;;;;;;25.23;45.07;98470.34;344008;28;1185;-78
2022/08/15 00:24:34;;;;;;;7.07;3.17;;;;;;;25.27;45.00;98469.00;344445;28;1203;-78
2022/08/15 00:24:49;;;;;;;7.22;3.22;;;;;;;25.18;45.05;98462.88;344667;28;1111;-78
2022/08/15 00:25:03;;;;;;;6.78;3.05;;;;;;;25.14;45.37;98469.53;345016;28;1578;-77
2022/08/15 00:25:16;;;;;;;6.22;3.10;;;;;;;25.11;45.55;98475.19;344924;28;1226;-77
2022/08/15 00:25:29;;;;;;;6.32;3.25;;;;;;;25.06;45.42;98473.06;345032;28;2034;-77
2022/08/15 00:25:49;;;;;;;6.72;3.35;;;;;;;25.10;45.34;98469.03;345198;28;1135;-78
2022/08/15 00:26:10;;;;;;;9.05;3.13;;;;;;;25.10;45.90;98463.72;344895;28;1113;-78
2022/08/15 00:26:40;;;;;;;7.90;3.13;;;;;;;25.04;45.57;98467.06;344008;28;866;-77
2022/08/15 00:27:08;;;;;;;5.53;2.90;;;;;;;25.12;45.33;98461.72;344355;28;1983;-78
2022/08/15 00:27:24;;;;;;;5.97;2.83;;;;;;;25.11;45.43;98469.88;345292;28;1611;-77
2022/08/15 00:27:37;;;;;;;4.32;2.83;;;;;;;25.04;45.16;98464.41;345239;28;1090;-77
2022/08/15 00:27:51;;;;;;;3.92;2.83;;;;;;;25.06;45.32;98464.25;344363;28;1414;-77
2022/08/15 00:28:07;;;;;;;4.13;2.90;;;;;;;25.16;45.31;98456.91;345214;28;914;-78
2022/08/15 00:28:21;;;;;;;4.88;2.90;;;;;;;25.16;45.33;98456.06;345098;28;1042;-78
2022/08/15 00:28:46;;;;;;;4.87;2.93;;;;;;;25.14;45.18;98458.91;344977;28;1660;-78
2022/08/15 00:29:07;;;;;;;7.68;3.78;;;;;;;25.04;45.29;98455.63;343532;28;1494;-77
2022/08/15 00:29:23;;;;;;;6.57;3.53;;;;;;;25.00;45.60;98452.47;344294;28;1034;-77
2022/08/15 00:29:51;;;;;;;5.50;3.00;;;;;;;24.99;45.82;98456.16;343281;28;1669;-77
2022/08/15 00:30:05;;;;;;;5.85;2.92;;;;;;;24.95;45.88;98460.16;342782;28;1806;-78
2022/08/15 00:30:19;;;;;;;4.18;2.83;;;;;;;24.88;45.87;98453.84;343746;28;1181;-78
2022/08/15 00:30:41;;;;;;;3.97;2.90;;;;;;;24.93;45.86;98448.81;343595;28;1602;-77
2022/08/15 00:31:11;;;;;;;5.57;3.10;;;;;;;25.07;45.27;98448.13;342961;28;1051;-77
2022/08/15 00:31:23;;;;;;;5.50;3.08;;;;;;;25.05;45.66;98450.13;344716;28;1101;-77
2022/08/15 00:31:53;;;;;;;4.70;2.70;;;;;;;25.00;45.82;98467.59;344303;28;1376;-77
2022/08/15 00:32:10;;;;;;;7.28;2.90;;;;;;;24.93;46.10;98451.47;344311;28;1150;-77
2022/08/15 00:32:55;;;;;;;5.97;3.30;;;;;;;24.92;46.00;98461.28;343451;28;1317;-77
2022/08/15 00:33:28;;;;;;;6.68;3.00;;;;;;;24.95;45.84;98457.50;343584;28;1393;-77
2022/08/15 00:33:41;;;;;;;7.38;3.00;;;;;;;24.95;46.11;98462.81;343661;28;1080;-77
2022/08/15 00:33:53;;;;;;;6.90;3.05;;;;;;;24.95;46.01;98460.16;344206;28;1912;-77
2022/08/15 00:34:06;;;;;;;8.43;3.10;;;;;;;24.98;46.03;98457.13;344420;28;1569;-78
2022/08/15 00:34:37;;;;;;;4.68;3.05;;;;;;;24.93;46.34;98456.81;343694;28;1495;-76
2022/08/15 00:34:51;;;;;;;5.05;2.83;;;;;;;24.98;46.23;98457.13;344104;28;2074;-77
2022/08/15 00:35:35;;;;;;;5.03;2.60;;;;;;;24.95;46.23;98465.47;344764;28;2189;-77
2022/08/15 00:35:43;;;;;;;4.60;2.92;;;;;;;24.95;46.18;98457.50;344692;28;1199;-77
2022/08/15 00:36:14;;;;;;;5.75;2.70;;;;;;;24.95;46.47;98462.81;344657;28;1225;-77
2022/08/15 00:36:50;;;;;;;7.60;2.95;;;;;;;24.94;46.42;98460.31;344679;28;1534;-78
2022/08/15 00:37:06;;;;;;;5.43;3.00;;;;;;;24.91;46.44;98466.78;344926;28;928;-77
2022/08/15 00:37:19;;;;;;;6.22;2.83;;;;;;;24.90;46.50;98463.28;344968;28;1059;-77
2022/08/15 00:37:32;;;;;;;7.05;2.80;;;;;;;24.94;46.58;98458.47;343938;28;1041;-78
2022/08/15 00:38:09;;;;;;;7.45;2.80;;;;;;;24.94;46.51;98463.78;344561;28;1769;-78
2022/08/15 00:38:28;;;;;;;5.15;2.80;;;;;;;24.91;46.70;98459.66;344784;28;1835;-77
2022/08/15 00:38:51;;;;;;;5.05;2.90;;;;;;;25.03;46.24;98461.94;344344;28;1570;-77
2022/08/15 00:39:04;;;;;;;5.32;3.13;;;;;;;25.00;46.23;98457.78;343986;28;1307;-78
2022/08/15 00:39:24;;;;;;;4.55;2.97;;;;;;;24.92;46.42;98463.13;345145;28;1086;-77
2022/08/15 00:39:45;;;;;;;5.28;2.70;;;;;;;24.99;46.21;98458.81;343355;28;1075;-78
2022/08/15 00:40:07;;;;;;;5.40;2.90;;;;;;;25.00;46.34;98460.44;344273;28;1067;-77
2022/08/15 00:40:30;;;;;;;6.53;2.95;;;;;;;24.99;46.29;98460.59;346421;28;1280;-78
2022/08/15 00:41:53;;;;;;;8.55;3.05;;;;;;;25.03;46.09;98462.78;343218;28;1461;-78
2022/08/15 00:42:08;;;;;;;7.78;2.80;;;;;;;24.96;46.26;98451.16;343687;28;1129;-77
2022/08/15 00:42:25;;;;;;;8.60;2.75;;;;;;;24.97;46.43;98463.47;345097;28;1295;-77
2022/08/15 00:42:41;;;;;;;5.70;2.75;;;;;;;24.93;46.37;98456.81;344325;28;863;-78
2022/08/15 00:43:01;;;;;;;4.65;2.60;;;;;;;24.94;46.57;98457.66;343433;28;1779;-77
2022/08/15 00:43:15;;;;;;;6.57;2.63;;;;;;;24.90;46.80;98454.50;343489;28;1015;-78
2022/08/15 00:43:27;;;;;;;7.28;2.90;;;;;;;24.95;46.47;98452.16;343475;28;1223;-78
2022/08/15 00:43:48;;;;;;;4.97;3.00;;;;;;;24.99;46.24;98461.47;343620;28;1023;-77
2022/08/15 00:44:00;;;;;;;4.22;3.05;;;;;;;25.02;46.04;98457.63;342738;28;1047;-78
2022/08/15 00:44:25;;;;;;;5.22;2.83;;;;;;;24.98;46.42;98459.78;342352;28;1193;-78
2022/08/15 00:44:58;;;;;;;7.78;2.65;;;;;;;24.95;46.47;98465.47;343913;28;2031;-78
2022/08/15 00:45:24;;;;;;;5.82;2.55;;;;;;;24.90;46.46;98462.47;343748;28;1033;-77
2022/08/15 00:45:45;;;;;;;7.03;2.88;;;;;;;25.00;46.10;98460.44;343361;28;1055;-78
2022/08/15 00:46:08;;;;;;;5.85;2.83;;;;;;;24.98;46.17;98464.28;342856;28;1849;-78
2022/08/15 00:46:33;;;;;;;7.90;2.78;;;;;;;24.91;46.29;98458.81;342680;28;1520;-78
2022/08/15 00:46:49;;;;;;;5.35;2.70;;;;;;;24.84;46.40;98458.66;343574;28;1028;-77
2022/08/15 00:47:07;;;;;;;4.45;2.70;;;;;;;24.88;46.66;98454.66;341833;28;1105;-78
2022/08/15 00:47:22;;;;;;;4.57;2.72;;;;;;;24.86;46.58;98461.16;342069;28;1032;-77
2022/08/15 00:47:35;;;;;;;5.90;2.70;;;;;;;24.87;46.48;98462.81;343178;28;1995;-77
2022/08/15 00:48:55;;;;;;;6.60;2.90;;;;;;;24.82;46.71;98454.53;343924;28;1702;-77
2022/08/15 00:49:08;;;;;;;4.93;2.55;;;;;;;24.80;46.30;98461.84;344954;28;1851;-78
2022/08/15 00:49:26;;;;;;;5.78;2.63;;;;;;;24.78;46.50;98447.91;345475;28;1332;-78
2022/08/15 00:49:41;;;;;;;4.63;2.75;;;;;;;24.89;46.30;98455.47;346516;28;1216;-77
2022/08/15 00:50:14;;;;;;;5.22;2.72;;;;;;;24.93;46.09;98462.13;346377;28;2000;-77
2022/08/15 00:50:46;;;;;;;6.45;2.70;;;;;;;25.00;46.02;98463.09;344861;28;1293;-78
2022/08/15 00:50:58;;;;;;;6.22;2.75;;;;;;;25.03;45.66;98456.59;345934;28;1868;-77
2022/08/15 00:51:38;;;;;;;5.80;2.70;;;;;;;25.03;45.80;98452.13;345115;28;1062;-78
2022/08/15 00:51:57;;;;;;;4.43;2.60;;;;;;;24.94;46.26;98458.47;339443;28;1585;-78
2022/08/15 00:52:09;;;;;;;6.17;2.60;;;;;;;24.97;45.97;98457.28;344787;28;1216;-78
2022/08/15 00:52:41;;;;;;;4.18;2.50;;;;;;;24.97;45.98;98450.16;345086;28;1236;-77
2022/08/15 00:52:53;;;;;;;4.88;2.60;;;;;;;24.87;46.11;98452.16;344893;28;1580;-78
2022/08/15 00:53:09;;;;;;;3.90;2.50;;;;;;;24.95;46.05;98452.16;345295;28;1007;-78
2022/08/15 00:53:22;;;;;;;4.15;2.40;;;;;;;24.90;46.11;98452.66;345189;28;1094;-77
2022/08/15 00:53:46;;;;;;;5.88;2.70;;;;;;;24.96;46.04;98460.97;345010;28;1592;-78
2022/08/15 00:54:17;;;;;;;6.03;2.90;;;;;;;24.91;46.20;98457.00;344202;28;1300;-78
2022/08/15 00:55:11;;;;;;;5.47;2.67;;;;;;;24.96;46.09;98460.97;343745;28;1315;-79
2022/08/15 00:55:29;;;;;;;3.60;2.50;;;;;;;24.99;45.90;98449.97;344604;28;1536;-77
2022/08/15 00:55:44;;;;;;;4.38;2.50;;;;;;;25.03;45.81;98454.81;344695;28;1051;-77
2022/08/15 00:56:04;;;;;;;5.93;2.60;;;;;;;24.99;45.85;98455.28;344392;28;1649;-77
2022/08/15 00:56:57;;;;;;;3.83;2.80;;;;;;;24.99;45.73;98456.16;343697;28;1981;-77
2022/08/15 00:57:35;;;;;;;5.28;2.63;;;;;;;24.94;46.01;98455.81;345025;28;1097;-78
2022/08/15 00:58:09;;;;;;;5.25;2.47;;;;;;;24.95;45.98;98454.81;344993;28;1407;-77
2022/08/15 00:58:43;;;;;;;4.60;2.60;;;;;;;24.90;46.02;98467.78;344708;28;1459;-78
2022/08/15 00:59:09;;;;;;;7.28;2.50;;;;;;;24.89;46.05;98460.81;343853;28;1090;-77
2022/08/15 00:59:31;;;;;;;4.82;2.40;;;;;;;24.86;46.33;98461.16;343527;28;1067;-77
2022/08/15 00:59:48;;;;;;;4.72;2.40;;;;;;;24.85;46.14;98456.81;343331;28;1063;-77
2022/08/15 01:00:22;;;;;;;5.13;2.70;;;;;;;24.80;46.49;98456.53;343672;28;1284;-78
2022/08/15 01:00:47;;;;;;;6.03;2.80;;;;;;;24.71;46.62;98464.53;342621;28;1929;-77
2022/08/15 01:01:02;;;;;;;5.70;3.00;;;;;;;24.74;46.49;98463.34;343192;28;1548;-77
2022/08/15 01:01:15;;;;;;;5.88;2.85;;;;;;;24.79;46.48;98457.50;343459;28;1035;-78
2022/08/15 01:01:28;;;;;;;6.40;2.80;;;;;;;24.79;46.31;98460.16;343608;28;1028;-77
2022/08/15 01:01:44;;;;;;;7.13;2.78;;;;;;;24.81;46.20;98458.16;343556;28;1099;-78
2022/08/15 01:02:15;;;;;;;4.80;2.50;;;;;;;24.81;46.38;98459.03;343234;28;1650;-77
2022/08/15 01:02:48;;;;;;;3.72;2.58;;;;;;;24.84;46.57;98463.16;343705;28;1144;-77
2022/08/15 01:03:08;;;;;;;4.00;2.33;;;;;;;24.84;46.38;98465.81;344853;28;1518;-78
2022/08/15 01:03:36;;;;;;;6.32;3.00;;;;;;;24.74;46.79;98451.91;343536;28;1327;-77
2022/08/15 01:04:09;;;;;;;3.90;2.63;;;;;;;24.78;46.70;98463.84;343781;28;1720;-77
2022/08/15 01:04:30;;;;;;;3.85;2.40;;;;;;;24.79;46.75;98465.47;343430;28;1051;-77
2022/08/15 01:04:46;;;;;;;5.30;2.60;;;;;;;24.76;46.77;98452.56;342209;28;1119;-77
2022/08/15 01:05:07;;;;;;;6.40;2.70;;;;;;;24.76;47.20;98456.03;344295;28;1027;-78
2022/08/15 01:05:29;;;;;;;4.22;2.35;;;;;;;24.70;47.16;98462.84;343628;28;1132;-78
2022/08/15 01:05:46;;;;;;;5.55;2.35;;;;;;;24.67;47.25;98462.34;343503;28;1035;-77
2022/08/15 01:06:05;;;;;;;7.82;2.65;;;;;;;24.62;47.47;98454.06;343445;28;1793;-77
2022/08/15 01:06:19;;;;;;;7.95;2.78;;;;;;;24.63;47.54;98459.22;342110;28;982;-77
2022/08/15 01:06:39;;;;;;;5.85;2.67;;;;;;;24.64;47.77;98458.22;342403;28;1043;-77
2022/08/15 01:06:51;;;;;;;8.40;2.90;;;;;;;24.61;47.78;98463.88;342152;28;1998;-78
2022/08/15 01:07:09;;;;;;;8.45;2.70;;;;;;;24.59;47.93;98455.25;342688;28;1684;-77
2022/08/15 01:07:22;;;;;;;4.95;2.35;;;;;;;24.62;47.86;98462.88;343482;28;1610;-77
2022/08/15 01:07:35;;;;;;;4.38;2.55;;;;;;;24.59;48.23;98449.94;343732;28;1050;-77
2022/08/15 01:07:49;;;;;;;4.05;2.60;;;;;;;24.58;48.15;98458.88;343619;28;1026;-77
2022/08/15 01:08:03;;;;;;;4.65;2.58;;;;;;;24.60;47.97;98456.91;345429;28;1332;-78
2022/08/15 01:08:17;;;;;;;4.13;2.60;;;;;;;24.53;48.12;98458.59;346384;28;1090;-77
2022/08/15 01:08:45;;;;;;;6.75;2.58;;;;;;;24.47;48.40;98461.88;346035;28;1054;-77
2022/08/15 01:08:58;;;;;;;7.90;2.63;;;;;;;24.58;48.44;98458.88;346348;28;1130;-77
2022/08/15 01:09:13;;;;;;;8.30;2.90;;;;;;;24.44;48.84;98456.91;347387;28;1902;-77
2022/08/15 01:09:28;;;;;;;6.18;2.83;;;;;;;24.42;48.60;98465.03;346225;28;1185;-77
2022/08/15 01:09:42;;;;;;;6.32;2.72;;;;;;;24.46;48.71;98462.88;346026;28;1082;-77
2022/08/15 01:09:56;;;;;;;8.07;2.88;;;;;;;24.45;48.75;98462.03;344045;28;1970;-77
2022/08/15 01:10:10;;;;;;;8.23;2.70;;;;;;;24.46;48.90;98465.53;342938;28;1782;-77
2022/08/15 01:10:37;;;;;;;7.47;3.20;;;;;;;24.31;49.29;98458.22;341975;28;1158;-77
2022/08/15 01:10:50;;;;;;;5.95;2.92;;;;;;;24.37;49.21;98458.53;342551;28;1156;-78
2022/08/15 01:11:31;;;;;;;5.80;2.67;;;;;;;24.46;48.89;98465.53;340963;29;1200;-78
2022/08/15 01:11:57;;;;;;;4.90;2.40;;;;;;;24.52;48.84;98459.56;342386;28;1163;-78
2022/08/15 01:12:21;;;;;;;9.90;2.75;;;;;;;24.47;49.06;98467.19;343489;28;1075;-77
2022/08/15 01:12:36;;;;;;;7.00;3.00;;;;;;;24.42;49.65;98458.88;343717;28;1607;-79
2022/08/15 01:12:48;;;;;;;4.82;2.90;;;;;;;24.35;49.45;98452.56;343508;28;1226;-78
2022/08/15 01:13:05;;;;;;;4.97;2.60;;;;;;;24.39;49.57;98460.06;344386;28;1039;-78
2022/08/15 01:13:39;;;;;;;6.80;2.80;;;;;;;24.44;49.40;98451.56;343650;28;1335;-78
2022/08/15 01:14:11;;;;;;;4.53;2.70;;;;;;;24.44;49.62;98456.91;343543;28;1393;-78
2022/08/15 01:14:49;;;;;;;9.77;2.90;;;;;;;24.40;49.69;98450.25;343404;28;1338;-78
2022/08/15 01:15:15;;;;;;;6.00;2.60;;;;;;;24.45;49.46;98447.94;343531;28;1567;-78
2022/08/15 01:15:28;;;;;;;4.78;2.60;;;;;;;24.41;49.66;98446.59;343504;28;1153;-78
2022/08/15 01:15:53;;;;;;;4.80;2.90;;;;;;;24.39;49.72;98453.91;342796;28;1086;-77
2022/08/15 01:16:06;;;;;;;4.33;2.90;;;;;;;24.40;49.64;98455.56;342275;28;1087;-77
2022/08/15 01:16:20;;;;;;;4.30;3.00;;;;;;;24.40;49.34;98453.72;341165;29;1229;-77
2022/08/15 01:16:46;;;;;;;4.80;3.25;;;;;;;24.38;49.58;98444.28;341716;28;1773;-78
2022/08/15 01:16:58;;;;;;;4.20;2.90;;;;;;;24.41;49.56;98443.94;341967;28;1742;-77
2022/08/15 01:17:12;;;;;;;5.63;2.80;;;;;;;24.35;49.68;98448.13;342226;28;1078;-77
2022/08/15 01:17:28;;;;;;;5.90;2.80;;;;;;;24.39;49.73;98453.91;342154;28;1099;-77
2022/08/15 01:17:42;;;;;;;5.15;2.90;;;;;;;24.39;49.72;98453.91;342968;28;1233;-78
2022/08/15 01:18:05;;;;;;;8.80;2.92;;;;;;;24.30;49.98;98451.25;343424;28;1136;-79
2022/08/15 01:18:35;;;;;;;5.28;2.83;;;;;;;24.33;49.92;98445.63;343489;28;1144;-79
2022/08/15 01:18:47;;;;;;;5.28;2.60;;;;;;;24.33;49.95;98445.63;344182;28;1379;-78
2022/08/15 01:19:13;;;;;;;5.20;2.60;;;;;;;24.28;50.10;98450.59;344503;28;1204;-77
2022/08/15 01:19:29;;;;;;;5.82;2.60;;;;;;;24.22;50.11;98440.63;343443;28;1007;-78
2022/08/15 01:19:45;;;;;;;5.55;2.58;;;;;;;24.32;49.77;98446.59;343006;28;1865;-78
2022/08/15 01:20:12;;;;;;;5.22;2.60;;;;;;;24.40;49.94;98445.75;342761;28;1454;-78
2022/08/15 01:20:37;;;;;;;4.53;2.75;;;;;;;24.43;49.48;98444.63;343512;28;1023;-78
2022/08/15 01:20:54;;;;;;;5.53;2.63;;;;;;;24.37;49.73;98440.81;343590;28;1848;-77
2022/08/15 01:21:20;;;;;;;7.65;2.90;;;;;;;24.47;49.60;98445.94;343456;28;1084;-78
2022/08/15 01:21:38;;;;;;;5.05;2.70;;;;;;;24.54;49.31;98441.63;343479;28;1162;-78
2022/08/15 01:21:54;;;;;;;4.55;2.92;;;;;;;24.54;49.27;98441.63;343436;28;2068;-78
2022/08/15 01:22:34;;;;;;;4.13;2.78;;;;;;;24.40;49.63;98444.94;343795;28;1019;-78
2022/08/15 01:22:48;;;;;;;3.88;2.70;;;;;;;24.45;49.56;98447.94;344097;28;1528;-78
2022/08/15 01:23:36;;;;;;;3.42;2.40;;;;;;;24.35;49.79;98445.47;344987;28;1138;-78
2022/08/15 01:24:38;;;;;;;3.65;2.47;;;;;;;24.33;49.62;98447.44;344064;28;1578;-77
2022/08/15 01:25:15;;;;;;;5.95;2.95;;;;;;;24.30;49.83;98451.25;344214;28;1402;-77
2022/08/15 01:25:53;;;;;;;6.55;2.67;;;;;;;24.21;50.22;98451.44;343186;28;1392;-78
2022/08/15 01:26:26;;;;;;;5.15;2.67;;;;;;;24.27;49.87;98454.25;342607;28;1377;-79
2022/08/15 01:26:54;;;;;;;3.67;2.45;;;;;;;24.26;49.97;98449.94;342551;28;1941;-78
2022/08/15 01:27:06;;;;;;;4.22;2.40;;;;;;;24.34;49.95;98454.41;342016;28;1302;-78
2022/08/15 01:27:21;;;;;;;4.25;2.50;;;;;;;24.29;50.16;98460.22;343442;28;1907;-77
2022/08/15 01:27:41;;;;;;;4.68;2.60;;;;;;;24.30;49.92;98461.88;342578;28;1662;-78
2022/08/15 01:28:05;;;;;;;6.28;2.60;;;;;;;24.34;49.70;98451.75;342727;28;1725;-77
2022/08/15 01:28:21;;;;;;;7.67;2.57;;;;;;;24.35;50.25;98453.44;341085;29;1214;-78
2022/08/15 01:28:45;;;;;;;4.85;2.53;;;;;;;24.35;49.81;98449.91;342101;28;1218;-78
2022/08/15 01:29:03;;;;;;;3.70;2.58;;;;;;;24.38;49.87;98455.72;343167;28;1428;-78
2022/08/15 01:29:17;;;;;;;4.55;2.90;;;;;;;24.24;50.05;98457.22;343437;28;1063;-78
2022/08/15 01:29:30;;;;;;;5.30;2.90;;;;;;;24.25;50.27;98452.78;343464;28;1060;-78
2022/08/15 01:29:45;;;;;;;5.60;2.80;;;;;;;24.23;50.25;98450.28;344924;28;887;-78
2022/08/15 01:29:59;;;;;;;5.90;2.80;;;;;;;24.26;50.05;98449.94;344284;28;1646;-78
2022/08/15 01:30:18;;;;;;;7.22;2.80;;;;;;;24.32;50.22;98454.56;342818;28;1902;-78
2022/08/15 01:30:56;;;;;;;5.88;2.60;;;;;;;24.37;49.94;98451.44;342318;28;1405;-78
2022/08/15 01:31:18;;;;;;;4.70;2.80;;;;;;;24.28;50.22;98450.59;342683;28;1204;-77
2022/08/15 01:31:30;;;;;;;5.53;2.70;;;;;;;24.31;50.14;98452.91;342834;28;1548;-78
2022/08/15 01:31:46;;;;;;;5.45;2.80;;;;;;;24.36;50.10;98449.75;343950;28;1064;-78
2022/08/15 01:31:59;;;;;;;5.65;2.80;;;;;;;24.29;50.15;98459.41;343140;28;1928;-78
2022/08/15 01:32:12;;;;;;;6.10;2.60;;;;;;;24.28;50.35;98458.56;344210;28;2056;-78
2022/08/15 01:32:25;;;;;;;4.78;2.50;;;;;;;24.33;50.04;98456.25;345067;28;1055;-78
2022/08/15 01:32:37;;;;;;;4.20;2.47;;;;;;;24.35;50.06;98460.53;344926;28;1114;-78
2022/08/15 01:32:49;;;;;;;5.03;2.70;;;;;;;24.30;50.40;98459.22;343014;28;1668;-78
2022/08/15 01:33:02;;;;;;;5.47;2.80;;;;;;;24.32;50.32;98459.06;342718;28;1460;-78
2022/08/15 01:33:15;;;;;;;4.88;2.70;;;;;;;24.32;50.14;98459.88;343548;28;1122;-78
2022/08/15 01:33:31;;;;;;;4.95;2.85;;;;;;;24.35;50.17;98458.72;343644;28;1078;-78
2022/08/15 01:33:47;;;;;;;5.47;2.80;;;;;;;24.37;50.03;98458.53;343435;28;1194;-78
2022/08/15 01:34:00;;;;;;;6.82;2.72;;;;;;;24.43;49.96;98466.69;343749;28;1098;-77
2022/08/15 01:34:18;;;;;;;7.15;2.80;;;;;;;24.42;50.04;98461.53;343018;28;1574;-78
2022/08/15 01:34:30;;;;;;;5.78;2.80;;;;;;;24.39;50.04;98461.88;343529;28;1036;-78
2022/08/15 01:34:43;;;;;;;4.35;2.58;;;;;;;24.43;49.83;98460.56;342300;28;1635;-78
2022/08/15 01:35:00;;;;;;;4.72;2.58;;;;;;;24.42;50.09;98464.19;343820;28;1600;-78
2022/08/15 01:35:13;;;;;;;6.05;2.50;;;;;;;24.46;50.09;98462.88;344500;28;2057;-78
2022/08/15 01:35:27;;;;;;;6.50;2.55;;;;;;;24.40;50.15;98466.19;343812;28;1195;-78
2022/08/15 01:35:42;;;;;;;6.05;2.85;;;;;;;24.36;50.34;98464.88;343659;28;1173;-78
2022/08/15 01:35:55;;;;;;;6.07;3.00;;;;;;;24.36;50.08;98463.03;344197;28;1956;-79
2022/08/15 01:36:08;;;;;;;4.82;2.88;;;;;;;24.38;50.06;98462.88;343921;28;1305;-78
2022/08/15 01:36:40;;;;;;;3.65;2.60;;;;;;;24.44;49.98;98468.34;343666;28;1349;-78
2022/08/15 01:36:54;;;;;;;3.92;2.80;;;;;;;24.44;50.13;98462.19;343874;28;2018;-77
2022/08/15 01:37:07;;;;;;;4.88;2.85;;;;;;;24.40;50.16;98463.53;343564;28;1142;-78
2022/08/15 01:37:19;;;;;;;6.20;2.80;;;;;;;24.39;49.86;98464.53;343427;28;1084;-78
2022/08/15 01:37:31;;;;;;;6.55;2.70;;;;;;;24.41;49.83;98468.69;341926;28;1076;-78
2022/08/15 01:38:04;;;;;;;5.40;2.65;;;;;;;24.46;49.98;98471.66;341358;28;1524;-79
2022/08/15 01:38:20;;;;;;;3.85;2.70;;;;;;;24.49;49.83;98465.19;340977;29;1492;-79
2022/08/15 01:39:05;;;;;;;4.57;2.70;;;;;;;24.48;49.74;98463.53;341124;28;1165;-78
2022/08/15 01:39:40;;;;;;;5.25;2.78;;;;;;;24.48;49.75;98467.00;342198;28;1182;-78
2022/08/15 01:40:02;;;;;;;6.63;2.55;;;;;;;24.47;49.79;98462.69;343539;28;1055;-77
2022/08/15 01:40:26;;;;;;;7.07;3.33;;;;;;;24.42;49.64;98467.69;344281;28;1063;-77
2022/08/15 01:41:11;;;;;;;6.60;2.67;;;;;;;24.53;49.40;98466.56;344782;28;1496;-78
2022/08/15 01:41:39;;;;;;;4.65;2.70;;;;;;;24.48;49.39;98466.19;344974;28;1051;-78
2022/08/15 01:42:03;;;;;;;4.53;2.78;;;;;;;24.48;49.70;98468.84;344120;28;1681;-79
2022/08/15 01:42:27;;;;;;;8.57;3.00;;;;;;;24.37;49.73;98466.50;343838;28;1106;-78